Time;durP1;ratioP1;P1;durP2;ratioP2;P2;SDS_P1;SDS_P2;PMS_P1;PMS_P2;Temp;Humidity;BMP_temperature;BMP_pressure;BME280_temperature;BME280_humidity;BME280_pressure;Samples;Min_cycle;Max_cycle;Signal;HPM_P1;HPM_P2
2024/02/25 00:02:06;;;;;;;89.97;55.85;;;18.70;76.10;;;;;;4954206;28;20039;-64
2024/02/25 00:04:32;;;;;;;89.97;55.22;;;18.70;76.10;;;;;;4954171;28;20418;-65
2024/02/25 00:06:58;;;;;;;91.13;55.20;;;18.70;76.10;;;;;;4954397;28;20044;-64
2024/02/25 00:09:23;;;;;;;88.43;54.55;;;18.70;76.20;;;;;;4956813;28;20034;-64
2024/02/25 00:11:49;;;;;;;87.75;53.50;;;18.70;76.30;;;;;;4954394;28;20157;-64
2024/02/25 00:14:15;;;;;;;89.18;55.63;;;18.80;76.30;;;;;;4954344;28;20039;-64
2024/02/25 00:16:41;;;;;;;89.82;55.13;;;18.80;76.40;;;;;;4954645;28;20098;-64
2024/02/25 00:19:07;;;;;;;86.90;53.97;;;18.80;76.40;;;;;;4956478;28;20031;-64
2024/02/25 00:21:33;;;;;;;84.88;52.30;;;18.80;76.50;;;;;;4955121;28;20413;-64
2024/02/25 00:23:58;;;;;;;85.43;52.97;;;18.80;76.50;;;;;;4954024;28;20035;-64
2024/02/25 00:26:24;;;;;;;80.93;50.45;;;18.80;76.60;;;;;;4953034;28;20041;-64
2024/02/25 00:28:50;;;;;;;85.38;52.05;;;18.80;76.60;;;;;;4954262;28;20098;-65
2024/02/25 00:31:16;;;;;;;85.03;53.20;;;18.80;76.70;;;;;;4956170;28;20023;-65
2024/02/25 00:33:41;;;;;;;81.40;51.40;;;18.80;76.70;;;;;;4954446;28;20043;-65
2024/02/25 00:36:08;;;;;;;84.32;51.83;;;18.80;76.70;;;;;;4953846;28;20019;-65
2024/02/25 00:38:33;;;;;;;80.90;50.03;;;18.80;76.90;;;;;;4954061;28;20066;-66
2024/02/25 00:40:59;;;;;;;77.63;49.42;;;18.80;76.80;;;;;;4953948;28;20418;-66
2024/02/25 00:43:25;;;;;;;77.78;48.58;;;18.80;76.80;;;;;;4956295;28;20416;-65
2024/02/25 00:45:50;;;;;;;74.90;48.65;;;18.80;76.80;;;;;;4953794;28;20032;-65
2024/02/25 00:48:16;;;;;;;75.97;49.17;;;18.90;76.80;;;;;;4953639;28;20142;-65
2024/02/25 00:50:41;;;;;;;78.53;49.05;;;18.80;76.80;;;;;;4953434;28;20023;-65
2024/02/25 00:53:10;;;;;;;77.10;47.28;;;18.80;76.80;;;;;;4954900;28;20031;-66
2024/02/25 00:55:35;;;;;;;72.68;45.35;;;18.80;76.80;;;;;;4954674;28;20030;-64
2024/02/25 00:58:01;;;;;;;75.10;47.78;;;18.80;76.90;;;;;;4953813;28;20368;-65
2024/02/25 01:00:26;;;;;;;76.97;47.47;;;18.80;76.90;;;;;;4953379;28;20031;-63
2024/02/25 01:02:52;;;;;;;74.47;45.05;;;18.80;76.90;;;;;;4953390;28;20123;-65
2024/02/25 01:05:18;;;;;;;72.85;46.78;;;18.80;76.90;;;;;;4956023;28;20034;-65
2024/02/25 01:07:44;;;;;;;77.57;48.17;;;18.80;76.90;;;;;;4953452;28;20024;-65
2024/02/25 01:10:10;;;;;;;70.68;44.72;;;18.80;76.90;;;;;;4953420;28;20085;-65
2024/02/25 01:12:35;;;;;;;69.40;43.65;;;18.80;76.90;;;;;;4953192;28;20027;-65
2024/02/25 01:15:02;;;;;;;72.55;45.72;;;18.90;76.90;;;;;;4954065;28;20035;-64
2024/02/25 01:17:27;;;;;;;62.92;42.35;;;18.80;77.00;;;;;;4955617;28;20026;-65
2024/02/25 01:19:53;;;;;;;66.57;43.35;;;18.80;77.10;;;;;;4953399;28;20027;-65
2024/02/25 01:22:18;;;;;;;71.93;44.28;;;18.80;77.20;;;;;;4953446;28;20491;-64
2024/02/25 01:24:44;;;;;;;67.35;42.03;;;18.80;77.20;;;;;;4953296;28;20027;-65
2024/02/25 01:27:10;;;;;;;69.68;43.15;;;18.80;77.20;;;;;;4955199;28;20069;-65
2024/02/25 01:29:36;;;;;;;67.22;41.53;;;18.80;77.40;;;;;;4954439;28;20429;-65
2024/02/25 01:32:02;;;;;;;69.88;41.55;;;18.80;77.40;;;;;;4953129;28;20569;-65
2024/02/25 01:34:28;;;;;;;69.00;40.70;;;18.80;77.40;;;;;;4953093;28;20051;-64
2024/02/25 01:36:54;;;;;;;65.35;40.58;;;18.80;77.50;;;;;;4952808;28;20492;-65
2024/02/25 01:39:22;;;;;;;62.38;39.60;;;18.80;77.40;;;;;;4961415;28;20015;-65
2024/02/25 01:41:52;;;;;;;65.10;39.92;;;18.80;77.40;;;;;;4966998;28;20042;-66
2024/02/25 01:44:18;;;;;;;65.65;43.15;;;18.80;77.40;;;;;;4966198;28;20023;-65
2024/02/25 01:46:45;;;;;;;63.30;39.97;;;18.80;77.30;;;;;;4959860;28;20023;-66
2024/02/25 01:49:13;;;;;;;64.82;40.35;;;18.80;77.40;;;;;;4961384;28;20027;-64
2024/02/25 01:51:39;;;;;;;64.03;39.33;;;18.80;77.50;;;;;;4962342;28;20034;-66
2024/02/25 01:54:05;;;;;;;61.42;38.95;;;18.80;77.30;;;;;;4962505;28;20032;-65
2024/02/25 01:56:30;;;;;;;59.58;37.22;;;18.80;77.40;;;;;;4959232;28;20020;-66
2024/02/25 01:58:56;;;;;;;58.00;37.47;;;18.80;77.50;;;;;;4972425;28;20148;-66
2024/02/25 02:01:23;;;;;;;58.80;37.55;;;18.80;77.40;;;;;;4962230;28;20196;-65
2024/02/25 02:03:50;;;;;;;60.13;37.35;;;18.80;77.50;;;;;;4964341;28;20031;-66
2024/02/25 02:06:16;;;;;;;59.58;38.33;;;18.80;77.60;;;;;;4959339;28;20165;-66
2024/02/25 02:08:41;;;;;;;58.05;38.20;;;18.80;77.70;;;;;;4958914;28;20106;-66
2024/02/25 02:11:33;;;;;;;55.25;35.72;;;18.80;77.80;;;;;;4960445;28;20113;-65
2024/02/25 02:13:59;;;;;;;59.08;36.28;;;18.80;77.80;;;;;;4960815;28;20039;-66
2024/02/25 02:16:25;;;;;;;57.88;35.42;;;18.80;77.90;;;;;;4959212;28;20390;-66
2024/02/25 02:18:50;;;;;;;57.95;36.95;;;18.80;77.80;;;;;;4959220;28;20024;-67
2024/02/25 02:21:17;;;;;;;56.67;35.53;;;18.80;77.90;;;;;;4974440;28;20502;-66
2024/02/25 02:23:44;;;;;;;54.08;33.92;;;18.80;78.00;;;;;;4959094;28;20027;-65
2024/02/25 02:26:09;;;;;;;55.20;36.00;;;18.80;78.20;;;;;;4959092;28;20035;-65
2024/02/25 02:28:35;;;;;;;53.03;34.60;;;18.80;78.10;;;;;;4959112;28;20045;-65
2024/02/25 02:31:01;;;;;;;54.35;34.42;;;18.80;78.30;;;;;;4959289;28;20031;-62
2024/02/25 02:33:26;;;;;;;52.75;34.20;;;18.80;78.40;;;;;;4965544;28;20030;-64
2024/02/25 02:35:52;;;;;;;52.30;34.17;;;18.80;78.40;;;;;;4965925;28;20034;-65
2024/02/25 02:38:19;;;;;;;48.95;31.10;;;18.80;78.20;;;;;;4971833;28;20051;-64
2024/02/25 02:40:45;;;;;;;48.40;31.95;;;18.80;78.20;;;;;;4970141;28;20383;-63
2024/02/25 02:43:11;;;;;;;52.42;33.05;;;18.80;78.40;;;;;;4975275;28;20023;-61
2024/02/25 02:45:36;;;;;;;51.50;32.78;;;18.80;78.20;;;;;;4964583;28;20038;-65
2024/02/25 02:48:09;;;;;;;47.95;30.23;;;18.80;78.40;;;;;;4969721;28;20027;-63
2024/02/25 02:50:35;;;;;;;49.70;31.45;;;18.80;78.50;;;;;;4969819;28;20038;-65
2024/02/25 02:53:00;;;;;;;47.53;30.00;;;18.80;78.40;;;;;;4964218;28;20031;-65
2024/02/25 02:55:26;;;;;;;49.38;31.85;;;18.80;78.30;;;;;;4967161;28;20026;-64
2024/02/25 02:57:52;;;;;;;46.83;29.95;;;18.80;78.30;;;;;;4966912;28;20513;-65
2024/02/25 03:00:18;;;;;;;49.45;30.58;;;18.80;78.30;;;;;;4964270;28;20391;-63
2024/02/25 03:02:43;;;;;;;46.17;30.73;;;18.80;78.30;;;;;;4955467;28;20032;-65
2024/02/25 03:05:09;;;;;;;47.63;30.17;;;18.80;78.40;;;;;;4956974;28;20031;-64
2024/02/25 03:07:34;;;;;;;44.67;29.65;;;18.80;78.30;;;;;;4956677;28;20023;-64
2024/02/25 03:10:00;;;;;;;43.70;28.75;;;18.80;78.40;;;;;;4955410;28;20047;-65
2024/02/25 03:12:26;;;;;;;49.05;29.42;;;18.80;78.30;;;;;;4955137;28;20039;-65
2024/02/25 03:14:51;;;;;;;43.03;27.83;;;18.80;78.30;;;;;;4955297;28;20487;-65
2024/02/25 03:17:20;;;;;;;47.20;28.27;;;18.80;78.50;;;;;;4958022;28;20027;-65
2024/02/25 03:19:45;;;;;;;42.33;27.35;;;18.70;78.60;;;;;;4955067;28;20027;-64
2024/02/25 03:22:11;;;;;;;41.95;27.50;;;18.80;78.50;;;;;;4960258;28;20462;-64
2024/02/25 03:24:36;;;;;;;43.15;27.40;;;18.80;78.50;;;;;;4962896;28;20027;-64
2024/02/25 03:27:03;;;;;;;40.00;26.10;;;18.80;78.50;;;;;;4955826;28;20527;-64
2024/02/25 03:29:28;;;;;;;39.67;25.25;;;18.70;78.40;;;;;;4957303;28;20436;-64
2024/02/25 03:31:54;;;;;;;43.92;27.02;;;18.80;78.50;;;;;;4955126;28;20034;-64
2024/02/25 03:34:20;;;;;;;42.53;26.95;;;18.80;78.40;;;;;;4954924;28;20023;-64
2024/02/25 03:36:45;;;;;;;40.70;26.80;;;18.80;78.50;;;;;;4955054;28;20023;-64
2024/02/25 03:39:11;;;;;;;41.65;25.85;;;18.70;78.50;;;;;;4956618;28;20189;-64
2024/02/25 03:41:36;;;;;;;40.15;25.38;;;18.80;78.50;;;;;;4956034;28;20049;-65
2024/02/25 03:44:02;;;;;;;44.90;28.00;;;18.80;78.60;;;;;;4954624;28;20039;-64
2024/02/25 03:46:28;;;;;;;40.42;25.70;;;18.80;78.50;;;;;;4954731;28;20039;-64
2024/02/25 03:48:53;;;;;;;38.55;24.45;;;18.70;78.60;;;;;;4955170;28;20031;-64
2024/02/25 03:51:19;;;;;;;35.33;23.38;;;18.80;78.70;;;;;;4957705;28;20023;-63
2024/02/25 03:53:45;;;;;;;34.97;23.65;;;18.80;78.50;;;;;;4962748;28;20490;-64
2024/02/25 03:56:11;;;;;;;37.88;24.05;;;18.80;78.60;;;;;;4954732;28;20390;-64
2024/02/25 03:58:36;;;;;;;37.75;24.02;;;18.80;78.70;;;;;;4954740;28;20023;-65
2024/02/25 04:01:02;;;;;;;40.17;24.73;;;18.80;78.70;;;;;;4955154;28;20170;-64
2024/02/25 04:03:28;;;;;;;37.58;24.20;;;18.70;78.60;;;;;;4957070;28;20026;-65
2024/02/25 04:05:53;;;;;;;34.95;22.65;;;18.80;78.70;;;;;;4959837;28;20029;-64
2024/02/25 04:08:19;;;;;;;37.53;23.00;;;18.70;78.60;;;;;;4958429;28;20061;-65
2024/02/25 04:10:45;;;;;;;36.33;22.73;;;18.70;78.70;;;;;;4954415;28;20027;-65
2024/02/25 04:13:11;;;;;;;34.25;21.95;;;18.70;78.70;;;;;;4956389;28;20023;-64
2024/02/25 04:15:36;;;;;;;34.25;22.17;;;18.70;78.60;;;;;;4971790;28;20028;-64
2024/02/25 04:18:02;;;;;;;34.88;21.73;;;18.70;78.70;;;;;;4954655;28;20037;-65
2024/02/25 04:20:29;;;;;;;34.10;21.30;;;18.70;78.70;;;;;;4954394;28;20027;-64
2024/02/25 04:22:55;;;;;;;40.58;22.05;;;18.70;78.70;;;;;;4959045;28;20065;-64
2024/02/25 04:25:20;;;;;;;31.50;20.83;;;18.70;78.70;;;;;;4957426;28;20429;-62
2024/02/25 04:27:46;;;;;;;33.95;22.30;;;18.70;78.70;;;;;;4954569;28;20031;-64
2024/02/25 04:30:12;;;;;;;32.88;20.10;;;18.70;78.70;;;;;;4954318;28;20529;-64
2024/02/25 04:32:46;;;;;;;31.20;19.92;;;18.70;78.80;;;;;;4954110;28;20039;-63
2024/02/25 04:35:12;;;;;;;30.58;20.27;;;18.70;78.70;;;;;;4956052;28;20058;-63
2024/02/25 04:37:37;;;;;;;30.23;18.77;;;18.70;78.70;;;;;;4955231;28;20062;-63
2024/02/25 04:40:03;;;;;;;30.63;19.33;;;18.70;78.80;;;;;;4954016;28;20062;-63
2024/02/25 04:42:29;;;;;;;31.40;20.40;;;18.70;78.70;;;;;;4953872;28;20042;-63
2024/02/25 04:44:54;;;;;;;31.60;19.75;;;18.70;78.70;;;;;;4953729;28;20042;-63
2024/02/25 04:47:20;;;;;;;44.35;20.73;;;18.70;78.70;;;;;;4957057;28;20025;-63
2024/02/25 04:49:47;;;;;;;29.95;18.92;;;18.70;78.60;;;;;;4953950;28;20031;-64
2024/02/25 04:52:13;;;;;;;30.27;19.67;;;18.70;78.70;;;;;;4953864;28;20043;-64
2024/02/25 04:54:40;;;;;;;29.02;19.40;;;18.70;78.70;;;;;;4966458;28;20050;-63
2024/02/25 04:57:06;;;;;;;32.55;19.48;;;18.70;78.70;;;;;;4954887;28;20542;-63
2024/02/25 04:59:31;;;;;;;29.52;19.55;;;18.70;78.70;;;;;;4955773;28;20022;-64
2024/02/25 05:01:57;;;;;;;27.20;17.95;;;18.70;78.80;;;;;;4953759;28;20376;-63
2024/02/25 05:04:24;;;;;;;29.27;18.80;;;18.70;78.80;;;;;;4953509;28;20031;-64
2024/02/25 05:06:49;;;;;;;28.48;18.10;;;18.70;78.80;;;;;;4953785;28;20526;-64
2024/02/25 05:09:15;;;;;;;28.92;17.88;;;18.70;78.80;;;;;;4955154;28;20031;-65
2024/02/25 05:11:40;;;;;;;28.92;17.92;;;18.70;78.80;;;;;;4954043;28;20051;-65
2024/02/25 05:14:06;;;;;;;28.90;17.92;;;18.70;78.70;;;;;;4952956;28;20023;-65
2024/02/25 05:16:32;;;;;;;24.65;16.30;;;18.70;78.80;;;;;;4953751;28;20027;-65
2024/02/25 05:18:57;;;;;;;29.75;18.45;;;18.70;78.80;;;;;;4953672;28;20023;-64
2024/02/25 05:21:23;;;;;;;27.10;15.70;;;18.70;78.80;;;;;;4955813;28;20455;-64
2024/02/25 05:23:49;;;;;;;26.08;16.48;;;18.70;78.90;;;;;;4960384;28;20035;-65
2024/02/25 05:26:15;;;;;;;26.02;15.50;;;18.70;78.90;;;;;;4953597;28;20102;-63
2024/02/25 05:28:41;;;;;;;27.73;17.60;;;18.70;78.70;;;;;;4953646;28;20058;-64
2024/02/25 05:31:06;;;;;;;26.27;16.52;;;18.70;78.90;;;;;;4954533;28;20074;-64
2024/02/25 05:33:32;;;;;;;25.88;15.23;;;18.70;79.00;;;;;;4955545;28;20027;-64
2024/02/25 05:35:57;;;;;;;28.10;16.15;;;18.70;78.90;;;;;;4954782;28;20027;-66
2024/02/25 05:38:23;;;;;;;24.90;15.77;;;18.70;79.00;;;;;;4958162;28;20027;-64
2024/02/25 05:40:49;;;;;;;25.80;15.70;;;18.70;79.00;;;;;;4959600;28;20047;-64
2024/02/25 05:43:14;;;;;;;24.98;14.63;;;18.60;79.10;;;;;;4961974;28;20024;-64
2024/02/25 05:45:40;;;;;;;23.17;14.18;;;18.70;79.10;;;;;;5049441;23;20538;-61
2024/02/25 05:48:07;;;;;;;22.52;14.02;;;18.70;79.10;;;;;;5070583;28;20095;-62
2024/02/25 05:50:32;;;;;;;15.55;9.98;;;18.70;79.10;;;;;;5070414;28;20409;-64
2024/02/25 05:52:58;;;;;;;14.43;8.85;;;18.50;66.90;;;;;;5070839;28;20024;-64
2024/02/25 05:55:24;;;;;;;12.60;7.50;;;17.10;61.80;;;;;;5061609;28;20024;-63
2024/02/25 05:57:50;;;;;;;13.02;8.77;;;16.10;61.90;;;;;;5053695;28;20079;-63
2024/02/25 06:00:16;;;;;;;10.82;7.53;;;15.30;64.10;;;;;;5061360;28;20052;-62
2024/02/25 06:02:45;;;;;;;11.70;7.80;;;15.10;63.00;;;;;;5055732;28;20451;-62
2024/02/25 06:05:17;;;;;;;9.05;6.47;;;14.80;65.50;;;;;;5055657;28;20032;-62
2024/02/25 06:07:43;;;;;;;10.55;7.35;;;14.50;64.50;;;;;;5062723;28;20070;-62
2024/02/25 06:10:09;;;;;;;9.05;6.35;;;14.30;64.60;;;;;;5053952;28;20493;-62
2024/02/25 06:12:37;;;;;;;11.95;6.88;;;;;;;;;;5053559;28;20064;-62
2024/02/25 06:15:03;;;;;;;14.13;8.27;;;;;;;;;;5054656;28;20025;-60
2024/02/25 06:17:30;;;;;;;11.57;6.80;;;;;;;;;;5056228;28;20016;-60
2024/02/25 06:19:56;;;;;;;11.98;6.55;;;;;;;;;;5056657;28;20102;-60
2024/02/25 06:22:22;;;;;;;11.90;7.03;;;;;;;;;;5053729;28;20063;-61
2024/02/25 06:24:47;;;;;;;12.00;7.60;;;;;;;;;;5054461;28;20028;-61
2024/02/25 06:27:14;;;;;;;12.30;7.25;;;;;;;;;;5059630;28;20039;-60
2024/02/25 06:29:40;;;;;;;13.80;7.20;;;;;;;;;;5063358;28;20094;-59
2024/02/25 06:32:06;;;;;;;10.82;6.47;;;;;;;;;;5057403;28;20563;-61
2024/02/25 06:34:32;;;;;;;10.27;6.53;;;;;;;;;;5057420;28;20029;-61
2024/02/25 06:36:58;;;;;;;10.60;6.18;;;;;;;;;;5057734;28;20079;-61
2024/02/25 06:39:24;;;;;;;15.02;6.93;;;;;;;;;;5065217;28;20017;-60
2024/02/25 06:41:51;;;;;;;15.75;6.75;;;;;;;;;;5057143;28;20106;-63
2024/02/25 06:44:17;;;;;;;14.00;7.10;;;;;;;;;;5057372;28;20060;-63
2024/02/25 06:46:44;;;;;;;10.60;6.47;;;;;;;;;;5060319;28;20021;-63
2024/02/25 06:49:10;;;;;;;10.27;6.32;;;;;;;;;;5060622;28;20107;-61
2024/02/25 06:51:36;;;;;;;13.70;6.88;;;;;;;;;;5072814;28;20046;-60
2024/02/25 06:54:03;;;;;;;18.85;6.72;;;;;;;;;;5073640;28;20024;-61
2024/02/25 06:56:31;;;;;;;14.40;5.95;;;;;;;;;;5067921;28;20214;-61
2024/02/25 06:58:57;;;;;;;12.75;6.10;;;;;;;;;;5057194;28;20078;-60
2024/02/25 07:01:23;;;;;;;10.57;5.55;;;;;;;;;;5068096;28;20606;-61
2024/02/25 07:03:49;;;;;;;11.40;6.25;;;17.50;76.50;;;;;;5058858;28;20695;-64
2024/02/25 07:06:14;;;;;;;10.63;6.32;;;17.50;76.70;;;;;;5056768;28;20148;-63
2024/02/25 07:08:40;;;;;;;14.98;6.20;;;17.50;76.80;;;;;;5056689;28;20033;-63
2024/02/25 07:11:19;;;;;;;14.07;7.45;;;17.50;76.80;;;;;;5057822;28;20395;-63
2024/02/25 07:13:46;;;;;;;14.23;6.63;;;17.50;76.90;;;;;;5056962;28;20059;-63
2024/02/25 07:16:12;;;;;;;15.23;5.78;;;17.60;76.80;;;;;;5056783;28;20032;-61
2024/02/25 07:18:38;;;;;;;15.73;6.05;;;17.60;76.50;;;;;;5059019;28;20400;-61
2024/02/25 07:21:06;;;;;;;16.13;6.40;;;17.60;76.50;;;;;;5064718;28;20021;-61
2024/02/25 07:23:32;;;;;;;14.20;6.28;;;17.60;76.50;;;;;;5058278;28;20021;-60
2024/02/25 07:25:58;;;;;;;16.52;6.40;;;17.60;76.40;;;;;;5056485;28;20537;-61
2024/02/25 07:28:24;;;;;;;13.18;6.93;;;17.60;76.40;;;;;;5063454;28;20020;-61
2024/02/25 07:30:50;;;;;;;14.50;6.88;;;17.60;76.30;;;;;;5056330;28;20044;-61
2024/02/25 07:33:16;;;;;;;16.40;6.43;;;17.60;76.40;;;;;;5059060;28;20055;-61
2024/02/25 07:35:41;;;;;;;16.05;6.90;;;17.70;76.40;;;;;;5056188;28;20091;-61
2024/02/25 07:38:07;;;;;;;12.10;6.07;;;17.60;76.40;;;;;;5056129;28;20580;-60
2024/02/25 07:40:33;;;;;;;14.30;6.60;;;17.70;76.50;;;;;;5056219;28;20018;-61
2024/02/25 07:42:58;;;;;;;21.33;7.72;;;17.70;76.60;;;;;;5056385;28;20021;-61
2024/02/25 07:45:24;;;;;;;20.05;7.32;;;17.70;77.10;;;;;;5058957;28;20071;-61
2024/02/25 07:47:49;;;;;;;16.63;7.05;;;17.70;77.30;;;;;;5056256;28;20028;-59
2024/02/25 07:50:15;;;;;;;15.60;6.60;;;17.70;77.40;;;;;;5056089;28;20029;-61
2024/02/25 07:52:40;;;;;;;17.23;6.22;;;17.70;77.40;;;;;;5064403;28;20035;-61
2024/02/25 07:55:08;;;;;;;17.95;6.05;;;17.80;77.30;;;;;;5057922;28;20162;-61
2024/02/25 07:57:35;;;;;;;13.05;5.90;;;17.70;77.20;;;;;;5060399;28;20557;-61
2024/02/25 08:00:02;;;;;;;10.52;5.80;;;17.70;77.10;;;;;;5069199;28;20032;-61
2024/02/25 08:02:27;;;;;;;11.95;6.35;;;17.70;77.10;;;;;;5060496;28;20111;-60
2024/02/25 08:04:53;;;;;;;15.57;6.15;;;17.70;77.10;;;;;;5055561;28;20648;-61
2024/02/25 08:07:18;;;;;;;15.50;5.90;;;17.80;77.00;;;;;;5067069;28;20131;-61
2024/02/25 08:09:44;;;;;;;12.13;6.63;;;17.80;76.90;;;;;;5064131;28;20397;-61
2024/02/25 08:12:10;;;;;;;12.18;5.72;;;17.80;76.90;;;;;;5060515;28;20120;-61
2024/02/25 08:14:35;;;;;;;11.20;5.20;;;17.80;76.80;;;;;;5057297;28;20484;-61
2024/02/25 08:17:01;;;;;;;10.55;5.90;;;17.80;76.80;;;;;;5058998;28;20025;-60
2024/02/25 08:19:26;;;;;;;13.80;5.30;;;17.80;76.80;;;;;;5062999;28;20024;-62
2024/02/25 08:21:52;;;;;;;13.75;5.20;;;17.80;76.80;;;;;;5055031;28;20515;-61
2024/02/25 08:24:18;;;;;;;15.18;5.63;;;17.80;76.80;;;;;;5055394;28;20032;-61
2024/02/25 08:26:44;;;;;;;13.48;5.88;;;17.80;76.80;;;;;;5054991;28;20052;-61
2024/02/25 08:29:10;;;;;;;12.77;5.65;;;17.80;76.90;;;;;;5057006;28;20055;-61
2024/02/25 08:31:35;;;;;;;9.40;5.30;;;17.80;76.90;;;;;;5056603;28;20056;-61
2024/02/25 08:34:01;;;;;;;13.68;6.75;;;17.80;77.00;;;;;;5055159;28;20082;-64
2024/02/25 08:36:27;;;;;;;11.35;6.90;;;17.60;67.10;;;;;;5055779;28;20025;-65
2024/02/25 08:38:52;;;;;;;8.98;6.10;;;17.10;64.40;;;;;;5061273;28;20064;-60
2024/02/25 08:41:18;;;;;;;9.48;6.93;;;17.00;67.40;;;;;;5066023;28;20480;-63
2024/02/25 08:43:43;;;;;;;9.00;6.78;;;16.90;59.30;;;;;;5065242;28;20100;-63
2024/02/25 08:46:09;;;;;;;7.80;6.70;;;15.90;53.50;;;;;;5058839;28;20061;-63
2024/02/25 08:48:34;;;;;;;10.00;6.88;;;15.10;55.10;;;;;;5065794;28;20020;-63
2024/02/25 08:51:00;;;;;;;7.70;6.22;;;14.50;55.80;;;;;;5065052;28;20089;-64
2024/02/25 08:53:26;;;;;;;10.10;6.65;;;14.00;57.00;;;;;;5060951;28;20020;-62
2024/02/25 08:55:51;;;;;;;10.38;6.68;;;14.20;60.90;;;;;;5055108;28;20025;-61
2024/02/25 08:58:17;;;;;;;9.20;6.18;;;14.70;67.10;;;;;;5055740;28;20049;-62
2024/02/25 09:00:45;;;;;;;11.50;6.10;;;15.10;70.40;;;;;;5057653;28;20020;-62
2024/02/25 09:03:11;;;;;;;13.93;6.70;;;15.40;71.70;;;;;;5060549;28;20693;-62
2024/02/25 09:05:37;;;;;;;16.50;5.85;;;15.70;72.80;;;;;;5064596;28;20036;-62
2024/02/25 09:08:03;;;;;;;11.93;6.65;;;15.90;73.50;;;;;;5060615;28;20020;-62
2024/02/25 09:10:29;;;;;;;11.95;6.72;;;16.00;74.00;;;;;;5057359;28;20511;-62
2024/02/25 09:12:57;;;;;;;19.00;6.80;;;16.20;74.00;;;;;;5054956;28;20036;-62
2024/02/25 09:15:23;;;;;;;13.90;5.72;;;16.30;74.10;;;;;;5066674;28;20415;-63
2024/02/25 09:17:54;;;;;;;18.83;5.85;;;16.30;74.10;;;;;;5054886;28;20032;-63
2024/02/25 09:20:21;;;;;;;15.95;6.03;;;16.40;74.00;;;;;;5055075;28;20577;-63
2024/02/25 09:22:47;;;;;;;43.15;6.15;;;16.50;74.00;;;;;;5062993;28;20627;-64
2024/02/25 09:25:12;;;;;;;22.65;5.60;;;16.60;74.30;;;;;;5056929;28;20032;-63
2024/02/25 09:27:41;;;;;;;11.80;5.20;;;16.70;74.40;;;;;;5058220;28;20135;-63
2024/02/25 09:30:07;;;;;;;20.23;5.97;;;16.70;74.30;;;;;;5071371;28;20373;-63
2024/02/25 09:32:35;;;;;;;19.73;6.00;;;16.80;74.20;;;;;;5056599;28;20497;-63
2024/02/25 09:35:01;;;;;;;14.80;4.78;;;16.80;74.30;;;;;;5057862;28;20040;-63
2024/02/25 09:37:26;;;;;;;15.02;5.00;;;16.90;74.30;;;;;;5062370;28;20016;-63
2024/02/25 09:39:52;;;;;;;11.15;5.30;;;17.00;74.50;;;;;;5054632;28;20028;-63
2024/02/25 09:42:21;;;;;;;15.30;5.72;;;17.00;74.60;;;;;;5059459;28;20021;-63
2024/02/25 09:44:51;;;;;;;8.55;4.93;;;17.00;74.50;;;;;;5062762;28;20064;-63
2024/02/25 09:47:18;;;;;;;15.13;5.30;;;17.00;74.50;;;;;;5062878;28;20052;-63
2024/02/25 09:49:47;;;;;;;12.68;5.10;;;17.10;74.50;;;;;;5055769;28;20123;-63
2024/02/25 09:52:14;;;;;;;10.02;4.93;;;17.10;74.50;;;;;;5057627;28;20039;-63
2024/02/25 09:54:41;;;;;;;13.43;5.05;;;17.20;74.50;;;;;;5056791;28;20024;-62
2024/02/25 09:57:07;;;;;;;12.50;5.03;;;17.20;74.40;;;;;;5059993;28;20047;-63
2024/02/25 09:59:33;;;;;;;11.02;4.90;;;17.20;74.40;;;;;;5075477;28;20017;-62
2024/02/25 10:01:58;;;;;;;9.98;4.47;;;17.30;74.40;;;;;;5073435;28;20089;-62
2024/02/25 10:04:26;;;;;;;10.35;4.63;;;17.30;74.40;;;;;;5070425;28;20028;-63
2024/02/25 10:06:52;;;;;;;13.18;4.85;;;17.30;74.40;;;;;;5077006;28;20029;-63
2024/02/25 10:09:34;;;;;;;10.23;5.00;;;17.40;74.40;;;;;;5073643;28;20035;-63
2024/02/25 10:12:03;;;;;;;10.45;4.45;;;17.40;74.40;;;;;;5057996;28;20037;-63
2024/02/25 10:14:31;;;;;;;9.57;3.83;;;17.40;74.40;;;;;;5057883;28;20036;-63
2024/02/25 10:17:04;;;;;;;11.48;4.68;;;17.50;74.40;;;;;;5062903;28;20021;-63
2024/02/25 10:19:31;;;;;;;8.93;4.03;;;17.50;74.40;;;;;;5060301;28;20031;-63
2024/02/25 10:22:15;;;;;;;9.82;4.35;;;17.50;74.30;;;;;;5063298;28;20215;-63
2024/02/25 10:24:41;;;;;;;8.48;4.43;;;17.50;74.30;;;;;;5057839;28;20028;-63
2024/02/25 10:27:13;;;;;;;8.23;4.18;;;17.50;74.20;;;;;;5059551;28;20036;-63
2024/02/25 10:29:59;;;;;;;8.85;4.32;;;17.50;74.20;;;;;;5059063;28;20078;-63
2024/02/25 10:32:29;;;;;;;12.18;4.22;;;17.60;74.20;;;;;;5074459;28;20016;-63
2024/02/25 10:35:00;;;;;;;13.02;4.13;;;17.60;74.20;;;;;;5057742;28;20025;-63
2024/02/25 10:37:27;;;;;;;9.55;4.78;;;17.60;74.20;;;;;;5066880;28;20403;-63
2024/02/25 10:39:55;;;;;;;7.82;3.65;;;17.60;74.10;;;;;;5077998;28;20476;-63
2024/02/25 10:42:31;;;;;;;5.28;3.38;;;17.70;74.10;;;;;;5057531;28;20075;-63
2024/02/25 10:44:58;;;;;;;6.35;3.95;;;17.70;74.10;;;;;;5057334;28;20052;-63
2024/02/25 10:47:25;;;;;;;5.93;3.60;;;17.70;74.00;;;;;;5066072;28;20066;-63
2024/02/25 10:49:52;;;;;;;8.45;4.07;;;17.70;74.00;;;;;;5070069;28;20033;-63
2024/02/25 10:52:20;;;;;;;8.55;3.83;;;17.80;73.90;;;;;;5062252;28;20020;-63
2024/02/25 10:54:50;;;;;;;6.63;3.20;;;17.80;73.90;;;;;;5065915;28;20025;-63
2024/02/25 10:57:21;;;;;;;6.15;4.00;;;17.80;73.80;;;;;;5060224;28;20121;-63
2024/02/25 10:59:48;;;;;;;7.97;3.60;;;17.80;73.80;;;;;;5061690;28;20393;-63
2024/02/25 11:02:17;;;;;;;5.63;3.15;;;17.80;73.80;;;;;;5062768;28;20477;-63
2024/02/25 11:04:46;;;;;;;7.53;3.90;;;17.80;73.70;;;;;;5058100;28;20924;-63
2024/02/25 11:07:13;;;;;;;12.25;4.20;;;17.90;73.70;;;;;;5059398;28;20496;-63
2024/02/25 11:09:39;;;;;;;6.55;3.45;;;17.90;73.70;;;;;;5063520;28;20448;-63
2024/02/25 11:12:19;;;;;;;7.40;3.67;;;17.90;73.70;;;;;;5061234;28;20128;-63
2024/02/25 11:14:53;;;;;;;9.30;4.75;;;17.90;73.70;;;;;;5056929;28;20021;-63
2024/02/25 11:17:26;;;;;;;6.35;4.03;;;17.90;73.70;;;;;;5060526;28;20021;-63
2024/02/25 11:20:00;;;;;;;5.10;3.38;;;17.90;73.70;;;;;;5057133;28;20069;-63
2024/02/25 11:22:42;;;;;;;7.13;3.38;;;17.90;73.70;;;;;;5064958;28;20068;-64
2024/02/25 11:25:26;;;;;;;7.15;4.05;;;18.00;73.70;;;;;;5062861;28;20111;-63
2024/02/25 11:27:58;;;;;;;5.97;3.25;;;17.90;73.70;;;;;;5056988;28;20060;-64
2024/02/25 11:30:47;;;;;;;6.25;3.60;;;17.90;73.70;;;;;;5065016;28;20059;-63
2024/02/25 11:33:33;;;;;;;6.93;3.75;;;17.90;73.70;;;;;;5063624;28;20025;-63
2024/02/25 11:35:59;;;;;;;5.90;3.55;;;17.90;73.60;;;;;;5056930;28;20059;-63
2024/02/25 11:38:27;;;;;;;6.05;3.35;;;17.90;73.70;;;;;;5061703;28;20025;-64
2024/02/25 11:40:55;;;;;;;6.38;3.65;;;18.00;73.60;;;;;;5060526;28;20101;-63
2024/02/25 11:43:20;;;;;;;6.53;3.38;;;17.90;73.60;;;;;;5059687;28;20031;-64
2024/02/25 11:45:47;;;;;;;7.55;3.97;;;18.00;73.60;;;;;;5056360;28;20040;-63
2024/02/25 11:48:13;;;;;;;5.80;2.95;;;18.00;73.60;;;;;;5063284;28;20614;-63
2024/02/25 11:50:39;;;;;;;6.55;3.55;;;18.00;73.50;;;;;;5065685;23;20052;-62
2024/02/25 11:53:06;;;;;;;6.72;3.70;;;18.00;73.60;;;;;;5031213;28;20026;-62
2024/02/25 11:55:32;;;;;;;5.10;3.45;;;18.00;73.60;;;;;;5031122;28;20415;-62
2024/02/25 11:57:59;;;;;;;7.03;3.53;;;18.00;73.50;;;;;;5031917;28;20113;-62
2024/02/25 12:00:25;;;;;;;8.43;3.47;;;18.00;73.50;;;;;;5020124;28;20057;-63
2024/02/25 12:02:52;;;;;;;5.35;3.22;;;18.00;73.50;;;;;;5010185;28;20029;-62
2024/02/25 12:05:18;;;;;;;6.53;3.15;;;18.00;73.40;;;;;;5011535;28;20034;-62
2024/02/25 12:08:04;;;;;;;6.95;3.30;;;18.00;73.40;;;;;;5011534;28;20230;-63
2024/02/25 12:10:30;;;;;;;10.60;3.72;;;18.00;73.40;;;;;;5011411;28;20030;-63
2024/02/25 12:12:56;;;;;;;8.88;3.47;;;18.00;73.30;;;;;;5011722;28;20474;-62
2024/02/25 12:15:27;;;;;;;3.85;2.63;;;18.00;73.40;;;;;;5011465;28;20735;-62
2024/02/25 12:17:53;;;;;;;6.03;2.90;;;18.00;73.30;;;;;;5003989;28;20026;-62
2024/02/25 12:20:19;;;;;;;5.55;3.50;;;18.00;73.40;;;;;;5011013;28;20444;-62
2024/02/25 12:22:45;;;;;;;4.97;3.15;;;18.00;73.40;;;;;;5011034;28;20026;-63
2024/02/25 12:25:17;;;;;;;5.07;2.97;;;18.00;73.50;;;;;;5011391;28;20037;-63
2024/02/25 12:27:45;;;;;;;10.27;3.55;;;18.00;73.50;;;;;;5011357;28;20037;-62
2024/02/25 12:30:11;;;;;;;8.23;3.97;;;18.00;74.10;;;;;;5011577;28;20166;-61
2024/02/25 12:32:37;;;;;;;8.57;3.35;;;18.00;74.50;;;;;;5010986;28;20130;-62
2024/02/25 12:35:05;;;;;;;9.07;3.45;;;18.00;74.70;;;;;;5010900;28;20036;-63
2024/02/25 12:37:31;;;;;;;8.00;3.83;;;18.00;74.70;;;;;;5011092;28;20025;-62
2024/02/25 12:39:57;;;;;;;8.25;3.10;;;18.00;74.80;;;;;;4993532;28;20057;-62